createdAt,value
2022-09-09T00:01:13.855Z,17.10
2022-09-09T00:07:10.719Z,17.10
2022-09-09T00:12:50.122Z,17.10
2022-09-09T00:18:37.228Z,17.00
2022-09-09T00:24:00.136Z,17.00
2022-09-09T00:29:25.281Z,17.00
2022-09-09T00:35:13.567Z,17.00
2022-09-09T00:40:42.036Z,16.90
2022-09-09T00:46:19.293Z,16.90
2022-09-09T00:52:05.607Z,16.90
2022-09-09T00:57:35.953Z,16.90
2022-09-09T01:03:34.436Z,16.80
2022-09-09T01:09:13.488Z,16.70
2022-09-09T01:14:35.702Z,16.70
2022-09-09T01:20:18.205Z,16.60
2022-09-09T01:25:44.692Z,16.60
2022-09-09T01:31:43.013Z,16.60
2022-09-09T01:37:13.055Z,16.60
2022-09-09T01:42:35.983Z,16.50
2022-09-09T01:47:59.145Z,16.50
2022-09-09T01:53:44.482Z,16.50
2022-09-09T01:59:19.973Z,16.50
2022-09-09T02:04:49.979Z,16.50
2022-09-09T02:10:33.867Z,16.40
2022-09-09T02:16:09.916Z,16.40
2022-09-09T02:21:36.036Z,16.40
2022-09-09T02:27:01.605Z,16.40
2022-09-09T02:32:25.771Z,16.40
2022-09-09T02:37:52.810Z,16.40
2022-09-09T02:43:17.494Z,16.40
2022-09-09T02:48:50.930Z,16.30
2022-09-09T02:54:31.956Z,16.40
2022-09-09T02:59:59.172Z,16.40
2022-09-09T03:05:22.116Z,16.30
2022-09-09T03:10:44.640Z,16.40
2022-09-09T03:16:09.459Z,16.40
2022-09-09T03:21:37.687Z,16.30
2022-09-09T03:26:59.912Z,16.20
2022-09-09T03:32:23.484Z,16.20
2022-09-09T03:37:45.874Z,16.10
2022-09-09T03:43:10.805Z,16.20
2022-09-09T03:48:33.205Z,16.10
2022-09-09T03:53:57.824Z,16.20
2022-09-09T03:59:22.259Z,16.20
2022-09-09T04:04:44.507Z,16.10
2022-09-09T04:10:07.385Z,16.10
2022-09-09T04:15:30.023Z,16.10
2022-09-09T04:20:53.765Z,16.10
2022-09-09T04:26:19.567Z,16.10
2022-09-09T04:31:43.145Z,16.10
2022-09-09T04:37:05.623Z,16.10
2022-09-09T04:42:28.768Z,16.20
2022-09-09T04:47:51.520Z,16.20
2022-09-09T04:53:13.924Z,16.30
2022-09-09T04:58:36.922Z,16.30
2022-09-09T05:04:00.878Z,16.30
2022-09-09T05:09:23.031Z,16.30
2022-09-09T05:14:47.371Z,16.30
2022-09-09T05:20:11.886Z,16.30
2022-09-09T05:25:37.079Z,16.70
2022-09-09T05:31:05.839Z,18.30
2022-09-09T05:36:29.897Z,18.90
2022-09-09T05:41:52.782Z,18.20
2022-09-09T05:47:16.243Z,17.50
2022-09-09T05:52:39.152Z,17.30
2022-09-09T05:58:02.528Z,17.10
2022-09-09T06:03:24.825Z,17.00
2022-09-09T06:08:49.362Z,16.90
2022-09-09T06:14:12.527Z,17.00
2022-09-09T06:19:35.816Z,16.90
2022-09-09T06:24:58.122Z,16.90
2022-09-09T06:30:20.390Z,16.90
2022-09-09T06:35:42.725Z,16.90
2022-09-09T06:41:06.728Z,16.90
2022-09-09T06:46:32.210Z,17.00
2022-09-09T06:51:56.623Z,17.10
2022-09-09T07:03:09.071Z,17.50
2022-09-09T07:09:30.415Z,17.60
2022-09-09T07:14:53.485Z,17.80
2022-09-09T07:20:17.810Z,17.90
2022-09-09T07:25:47.308Z,18.00
2022-09-09T07:31:21.890Z,18.20
2022-09-09T07:36:45.642Z,18.40
2022-09-09T07:42:12.705Z,18.40
2022-09-09T07:47:36.908Z,18.20
2022-09-09T07:53:01.071Z,18.10
2022-09-09T07:58:25.201Z,18.50
2022-09-09T08:03:56.679Z,18.60
2022-09-09T08:09:20.905Z,19.10
2022-09-09T08:14:45.170Z,18.90
2022-09-09T08:20:08.448Z,19.20
2022-09-09T08:25:32.238Z,19.70
2022-09-09T08:30:55.557Z,19.60
2022-09-09T08:36:24.523Z,19.80
2022-09-09T08:42:01.940Z,19.90
2022-09-09T08:47:34.038Z,19.90
2022-09-09T08:53:24.428Z,20.00
2022-09-09T08:58:54.550Z,20.50
2022-09-09T09:04:28.457Z,20.90
2022-09-09T09:10:40.449Z,20.90
2022-09-09T09:16:33.370Z,21.20
2022-09-09T09:22:17.816Z,22.10
2022-09-09T09:28:07.535Z,23.40
2022-09-09T09:33:55.051Z,24.20
2022-09-09T09:45:35.194Z,25.80
2022-09-09T09:51:11.650Z,24.40
2022-09-09T09:56:35.117Z,25.40
2022-09-09T10:02:25.695Z,28.30
2022-09-09T10:08:11.586Z,28.00
2022-09-09T10:13:46.148Z,26.20
2022-09-09T10:19:17.469Z,24.50
2022-09-09T10:25:12.736Z,24.90
2022-09-09T10:30:54.955Z,25.80
2022-09-09T10:36:27.968Z,27.30
2022-09-09T10:42:10.491Z,27.10
2022-09-09T10:47:58.656Z,26.60
2022-09-09T10:53:38.804Z,24.70
2022-09-09T10:59:08.772Z,24.00
2022-09-09T11:04:43.919Z,23.80
2022-09-09T11:10:48.462Z,24.00
2022-09-09T11:16:11.964Z,24.10
2022-09-09T11:21:46.280Z,24.10
2022-09-09T11:27:15.540Z,23.80
2022-09-09T11:33:05.603Z,24.00
2022-09-09T11:38:49.772Z,24.40
2022-09-09T11:44:18.676Z,24.40
2022-09-09T11:49:44.925Z,24.10
2022-09-09T11:55:25.200Z,24.30
2022-09-09T12:00:53.082Z,24.40
2022-09-09T12:06:21.587Z,24.20
2022-09-09T12:11:44.361Z,24.70
2022-09-09T12:17:16.208Z,24.70
2022-09-09T12:23:01.205Z,24.40
2022-09-09T12:28:45.492Z,24.40
2022-09-09T12:34:17.063Z,24.80
2022-09-09T12:40:01.486Z,24.90
2022-09-09T12:45:27.266Z,24.40
2022-09-09T12:50:53.104Z,24.20
2022-09-09T12:56:32.047Z,23.60
2022-09-09T13:01:59.223Z,23.70
2022-09-09T13:07:22.902Z,23.80
2022-09-09T13:12:45.571Z,23.50
2022-09-09T13:18:14.370Z,24.10
2022-09-09T13:23:38.665Z,24.20
2022-09-09T13:29:19.976Z,23.60
2022-09-09T13:34:55.535Z,23.60
2022-09-09T13:40:23.631Z,23.30
2022-09-09T13:45:55.226Z,23.50
2022-09-09T13:51:36.126Z,23.30
2022-09-09T13:56:58.188Z,23.30
2022-09-09T14:02:22.357Z,23.60
2022-09-09T14:07:46.399Z,23.50
2022-09-09T14:13:10.374Z,23.50
2022-09-09T14:18:35.025Z,23.20
2022-09-09T14:23:59.039Z,23.00
2022-09-09T14:29:21.321Z,22.80
2022-09-09T14:34:43.426Z,22.40
2022-09-09T14:40:06.164Z,22.40
2022-09-09T14:45:28.716Z,22.10
2022-09-09T14:50:50.828Z,21.80
2022-09-09T14:56:19.203Z,21.60
2022-09-09T15:01:41.430Z,21.80
2022-09-09T15:07:04.158Z,21.80
2022-09-09T15:12:26.176Z,22.00
2022-09-09T15:17:48.517Z,21.80
2022-09-09T15:23:11.203Z,21.60
2022-09-09T15:28:38.559Z,21.80
2022-09-09T15:34:03.031Z,21.60
2022-09-09T15:39:25.155Z,21.40
2022-09-09T15:44:47.287Z,21.50
2022-09-09T15:50:09.435Z,21.30
2022-09-09T15:55:31.545Z,21.10
2022-09-09T16:00:53.926Z,21.20
2022-09-09T16:06:16.638Z,21.30
2022-09-09T16:11:39.867Z,20.90
2022-09-09T16:17:02.442Z,20.80
2022-09-09T16:22:25.535Z,20.00
2022-09-09T16:27:47.651Z,19.70
2022-09-09T16:33:09.765Z,19.50
2022-09-09T16:38:31.844Z,19.30
2022-09-09T16:43:56.312Z,19.00
2022-09-09T16:49:18.644Z,18.70
2022-09-09T16:54:43.728Z,18.50
2022-09-09T17:00:08.011Z,18.20
2022-09-09T17:05:30.292Z,18.00
2022-09-09T17:10:52.385Z,17.80
2022-09-09T17:16:17.121Z,17.60
2022-09-09T17:21:54.598Z,17.30
2022-09-09T17:27:21.847Z,17.20
2022-09-09T17:32:43.928Z,17.00
2022-09-09T17:38:06.693Z,16.60
2022-09-09T17:43:28.789Z,16.40
2022-09-09T17:48:54.696Z,16.40
2022-09-09T17:54:20.914Z,16.30
2022-09-09T17:59:43.081Z,16.30
2022-09-09T18:05:05.630Z,16.20
2022-09-09T18:10:27.927Z,16.20
2022-09-09T18:15:50.871Z,16.10
2022-09-09T18:21:13.220Z,16.00
2022-09-09T18:26:36.188Z,16.00
2022-09-09T18:31:58.351Z,16.00
2022-09-09T18:37:20.438Z,16.00
2022-09-09T18:42:42.898Z,16.10
2022-09-09T18:48:05.875Z,16.10
2022-09-09T18:53:28.682Z,16.10
2022-09-09T18:58:55.769Z,16.20
2022-09-09T19:04:19.867Z,16.20
2022-09-09T19:09:42.271Z,16.00
2022-09-09T19:15:05.431Z,16.00
2022-09-09T19:20:27.920Z,15.90
2022-09-09T19:25:50.454Z,15.90
2022-09-09T19:31:15.650Z,15.90
2022-09-09T19:36:38.575Z,15.70
2022-09-09T19:42:01.181Z,15.80
2022-09-09T19:47:24.077Z,15.80
2022-09-09T19:52:46.162Z,15.80
2022-09-09T19:58:08.261Z,15.80
2022-09-09T20:03:30.958Z,15.70
2022-09-09T20:08:54.220Z,15.70
2022-09-09T20:14:17.176Z,15.70
2022-09-09T20:19:40.021Z,15.60
2022-09-09T20:25:02.838Z,15.50
2022-09-09T20:30:24.988Z,15.40
2022-09-09T20:35:47.689Z,15.50
2022-09-09T20:41:11.648Z,15.50
2022-09-09T20:46:36.554Z,15.10
2022-09-09T20:51:58.843Z,15.00
2022-09-09T20:57:23.162Z,15.20
2022-09-09T21:02:45.412Z,15.40
2022-09-09T21:08:07.479Z,15.40
2022-09-09T21:13:34.795Z,15.50
2022-09-09T21:18:58.632Z,15.60
2022-09-09T21:24:20.717Z,15.60
2022-09-09T21:29:43.057Z,15.50
2022-09-09T21:35:06.981Z,15.70
2022-09-09T21:40:29.627Z,15.70
2022-09-09T21:45:51.765Z,15.70
2022-09-09T21:51:15.910Z,15.80
2022-09-09T21:56:38.000Z,15.80
2022-09-09T22:02:00.228Z,15.80
2022-09-09T22:07:22.589Z,15.80
2022-09-09T22:12:44.683Z,15.70
2022-09-09T22:18:06.808Z,15.70
2022-09-09T22:23:31.556Z,15.60
2022-09-09T22:28:54.004Z,15.50
2022-09-09T22:34:16.197Z,15.50
2022-09-09T22:39:38.460Z,15.70
2022-09-09T22:45:00.778Z,15.60
2022-09-09T22:50:22.903Z,15.60
2022-09-09T22:56:00.320Z,15.60
2022-09-09T23:01:24.093Z,15.40
2022-09-09T23:06:46.857Z,15.50
2022-09-09T23:12:09.558Z,15.40
2022-09-09T23:17:34.316Z,15.40
2022-09-09T23:22:56.403Z,15.50
2022-09-09T23:28:18.494Z,15.50
2022-09-09T23:33:41.740Z,15.50
2022-09-09T23:39:05.947Z,15.50
2022-09-09T23:44:28.118Z,15.50
2022-09-09T23:49:51.466Z,15.50
2022-09-09T23:55:13.590Z,15.50
